createdAt,value
2023-05-09T00:02:35.252Z,17.6
2023-05-09T00:08:29.389Z,17.6
2023-05-09T00:14:19.839Z,17.6
2023-05-09T00:20:11.274Z,17.6
2023-05-09T00:26:06.007Z,17.6
2023-05-09T00:31:56.044Z,17.6
2023-05-09T00:37:47.422Z,17.6
2023-05-09T00:43:41.576Z,17.6
2023-05-09T00:49:32.720Z,17.6
2023-05-09T00:55:23.833Z,17.6
2023-05-09T01:01:17.723Z,17.6
2023-05-09T01:07:10.861Z,17.6
2023-05-09T01:13:01.781Z,17.6
2023-05-09T01:18:56.150Z,17.6
2023-05-09T01:24:47.483Z,17.6
2023-05-09T01:30:38.328Z,17.6
2023-05-09T01:36:32.904Z,17.6
2023-05-09T01:42:23.619Z,17.6
2023-05-09T01:48:14.882Z,17.6
2023-05-09T01:54:10.246Z,17.6
2023-05-09T02:00:00.780Z,17.6
2023-05-09T02:05:52.447Z,17.6
2023-05-09T02:11:46.632Z,17.6
2023-05-09T02:17:38.346Z,17.6
2023-05-09T02:23:29.523Z,17.6
2023-05-09T02:29:24.114Z,17.6
2023-05-09T02:35:16.085Z,17.5
2023-05-09T02:41:09.125Z,17.6
2023-05-09T02:47:03.062Z,17.5
2023-05-09T02:53:05.800Z,17.6
2023-05-09T02:59:05.971Z,17.5
2023-05-09T03:05:00.657Z,17.5
2023-05-09T03:10:51.572Z,17.5
2023-05-09T03:16:43.651Z,17.5
2023-05-09T03:22:38.009Z,17.5
2023-05-09T03:28:29.983Z,17.5
2023-05-09T03:34:21.887Z,17.5
2023-05-09T03:40:15.850Z,17.5
2023-05-09T03:46:07.175Z,17.5
2023-05-09T03:51:59.187Z,17.5
2023-05-09T03:57:53.653Z,17.5
2023-05-09T04:03:45.990Z,17.5
2023-05-09T04:09:37.900Z,17.5
2023-05-09T04:15:31.954Z,17.5
2023-05-09T04:21:23.743Z,17.5
2023-05-09T04:27:15.572Z,17.5
2023-05-09T04:33:09.887Z,17.5
2023-05-09T04:39:01.177Z,17.5
2023-05-09T04:44:51.947Z,17.5
2023-05-09T04:50:46.235Z,17.5
2023-05-09T04:56:37.596Z,17.5
2023-05-09T05:02:23.424Z,17.4
2023-05-09T05:08:31.223Z,17.4
2023-05-09T05:14:30.225Z,17.5
2023-05-09T05:20:06.517Z,17.5
2023-05-09T05:26:00.478Z,17.4
2023-05-09T05:31:52.370Z,17.4
2023-05-09T05:37:46.134Z,17.5
2023-05-09T05:43:41.075Z,17.4
2023-05-09T05:49:33.364Z,17.4
2023-05-09T05:55:27.387Z,17.4
2023-05-09T06:01:21.702Z,17.4
2023-05-09T06:07:14.474Z,17.4
2023-05-09T06:13:06.309Z,17.4
2023-05-09T06:19:12.360Z,17.4
2023-05-09T06:25:26.964Z,17.5
2023-05-09T06:31:32.069Z,17.4
2023-05-09T06:37:10.881Z,17.4
2023-05-09T06:43:02.106Z,17.5
2023-05-09T06:48:54.578Z,17.5
2023-05-09T06:54:48.482Z,17.5
2023-05-09T07:00:39.926Z,17.4
2023-05-09T07:06:17.417Z,17.4
2023-05-09T07:12:23.464Z,17.4
2023-05-09T07:18:44.880Z,17.4
2023-05-09T07:24:37.009Z,17.4
2023-05-09T07:30:15.542Z,17.4
2023-05-09T07:35:52.508Z,17.4
2023-05-09T07:41:43.126Z,17.5
2023-05-09T07:47:37.572Z,17.4
2023-05-09T07:53:28.889Z,17.4
2023-05-09T07:59:20.082Z,17.4
2023-05-09T08:05:15.913Z,17.4
2023-05-09T08:11:07.443Z,17.4
2023-05-09T08:17:01.261Z,17.4
2023-05-09T08:22:39.815Z,17.5
2023-05-09T08:28:31.714Z,17.5
2023-05-09T08:34:24.549Z,17.4
2023-05-09T08:40:19.141Z,17.5
2023-05-09T08:46:11.279Z,17.5
2023-05-09T08:52:03.922Z,17.5
2023-05-09T08:57:58.692Z,17.6
2023-05-09T09:03:54.325Z,17.6
2023-05-09T09:10:04.466Z,17.6
2023-05-09T09:15:58.537Z,17.6
2023-05-09T09:21:49.996Z,17.6
2023-05-09T09:27:41.197Z,17.6
2023-05-09T09:33:35.488Z,17.6
2023-05-09T09:39:10.380Z,17.6
2023-05-09T09:45:04.425Z,17.6
2023-05-09T09:50:58.698Z,17.6
2023-05-09T09:56:50.937Z,17.6
2023-05-09T10:02:42.739Z,17.6
2023-05-09T10:08:38.516Z,17.6
2023-05-09T10:14:14.401Z,17.6
2023-05-09T10:20:34.921Z,17.6
2023-05-09T10:26:29.061Z,17.6
2023-05-09T10:32:20.183Z,17.6
2023-05-09T10:38:11.768Z,17.7
2023-05-09T10:44:06.098Z,17.6
2023-05-09T10:49:58.834Z,17.7
2023-05-09T10:55:53.541Z,17.7
2023-05-09T11:01:47.464Z,17.7
2023-05-09T11:07:39.860Z,17.7
2023-05-09T11:13:32.409Z,17.7
2023-05-09T11:19:26.384Z,17.7
2023-05-09T11:25:18.343Z,17.7
2023-05-09T11:31:11.375Z,17.7
2023-05-09T11:37:05.404Z,17.7
2023-05-09T11:42:58.530Z,17.7
2023-05-09T11:48:51.850Z,17.7
2023-05-09T11:54:48.926Z,17.7
2023-05-09T12:00:39.819Z,17.8
2023-05-09T12:06:32.115Z,17.8
2023-05-09T12:12:25.864Z,17.8
2023-05-09T12:18:18.546Z,17.8
2023-05-09T12:24:10.018Z,17.8
2023-05-09T12:30:03.154Z,17.8
2023-05-09T12:35:54.667Z,17.8
2023-05-09T12:42:17.753Z,17.8
2023-05-09T12:48:11.813Z,17.8
2023-05-09T12:54:22.001Z,17.7
2023-05-09T13:00:17.065Z,17.8
2023-05-09T13:06:11.791Z,17.8
2023-05-09T13:12:14.742Z,17.8
2023-05-09T13:18:09.573Z,17.8
2023-05-09T13:24:03.006Z,17.8
2023-05-09T13:29:54.606Z,17.8
2023-05-09T13:36:05.769Z,17.8
2023-05-09T13:41:59.747Z,17.8
2023-05-09T13:47:55.366Z,17.8
2023-05-09T13:53:47.248Z,17.9
2023-05-09T13:59:41.267Z,17.8
2023-05-09T14:05:34.890Z,17.9
2023-05-09T14:11:31.480Z,17.9
2023-05-09T14:17:25.244Z,17.9
2023-05-09T14:23:20.641Z,17.9
2023-05-09T14:29:11.177Z,17.9
2023-05-09T14:35:05.407Z,17.9
2023-05-09T14:40:59.904Z,17.9
2023-05-09T14:46:51.831Z,17.9
2023-05-09T14:52:46.440Z,17.9
2023-05-09T14:58:37.441Z,17.9
2023-05-09T15:04:45.986Z,17.9
2023-05-09T15:10:41.115Z,17.9
2023-05-09T15:16:40.460Z,17.9
2023-05-09T15:22:32.336Z,18
2023-05-09T15:28:26.669Z,18
2023-05-09T15:34:18.884Z,18
2023-05-09T15:40:11.025Z,18
2023-05-09T15:45:51.802Z,18
2023-05-09T15:51:29.003Z,18
2023-05-09T15:57:21.567Z,18
2023-05-09T16:03:00.780Z,18
2023-05-09T16:08:53.120Z,18
2023-05-09T16:14:45.636Z,18
2023-05-09T16:20:42.326Z,18
2023-05-09T16:26:34.393Z,18
2023-05-09T16:32:27.176Z,18
2023-05-09T16:38:20.577Z,18
2023-05-09T16:44:12.546Z,18.1
2023-05-09T16:50:04.526Z,18
2023-05-09T16:55:57.874Z,18
2023-05-09T17:01:50.197Z,18
2023-05-09T17:07:43.092Z,18
2023-05-09T17:13:39.582Z,18
2023-05-09T17:19:44.064Z,18.1
2023-05-09T17:25:37.884Z,18.1
2023-05-09T17:31:31.992Z,18.1
2023-05-09T17:37:23.986Z,18
2023-05-09T17:43:02.635Z,18.1
2023-05-09T17:48:56.846Z,18
2023-05-09T17:54:49.325Z,18.1
2023-05-09T18:00:41.321Z,18
2023-05-09T18:06:36.090Z,18
2023-05-09T18:12:27.822Z,18
2023-05-09T18:18:20.537Z,18.1
2023-05-09T18:24:15.569Z,18.1
2023-05-09T18:30:08.958Z,18
2023-05-09T18:36:01.352Z,18
2023-05-09T18:41:55.860Z,18
2023-05-09T18:47:49.832Z,18
2023-05-09T18:53:42.206Z,18
2023-05-09T18:59:37.770Z,18
2023-05-09T19:05:30.685Z,18
2023-05-09T19:11:07.973Z,18
2023-05-09T19:16:47.987Z,18
2023-05-09T19:22:41.812Z,18
2023-05-09T19:28:35.537Z,18
2023-05-09T19:34:32.041Z,18
2023-05-09T19:40:24.984Z,18
2023-05-09T19:46:17.387Z,18
2023-05-09T19:52:11.439Z,17.9
2023-05-09T19:58:03.815Z,17.9
2023-05-09T20:03:56.242Z,17.9
2023-05-09T20:09:48.488Z,17.9
2023-05-09T20:15:40.351Z,17.9
2023-05-09T20:21:17.116Z,17.9
2023-05-09T20:26:53.399Z,17.9
2023-05-09T20:32:45.469Z,17.9
2023-05-09T20:38:36.332Z,17.9
2023-05-09T20:44:29.785Z,17.9
2023-05-09T20:50:21.646Z,17.9
2023-05-09T20:56:12.027Z,17.9
2023-05-09T21:02:04.926Z,17.9
2023-05-09T21:08:00.389Z,17.9
2023-05-09T21:13:36.199Z,17.9
2023-05-09T21:19:28.275Z,17.9
2023-05-09T21:25:19.708Z,17.9
2023-05-09T21:31:11.349Z,17.9
2023-05-09T21:37:04.297Z,17.8
2023-05-09T21:42:40.354Z,17.9
2023-05-09T21:48:32.995Z,17.8
2023-05-09T21:54:25.538Z,17.8
2023-05-09T22:00:17.567Z,17.8
2023-05-09T22:06:11.288Z,17.8
2023-05-09T22:12:05.116Z,17.8
2023-05-09T22:18:11.107Z,17.8
2023-05-09T22:24:02.549Z,17.8
2023-05-09T22:29:53.986Z,17.8
2023-05-09T22:35:45.024Z,17.8
2023-05-09T22:41:36.550Z,17.8
2023-05-09T22:47:15.500Z,17.8
2023-05-09T22:53:07.451Z,17.8
2023-05-09T22:58:58.307Z,17.8
2023-05-09T23:04:50.955Z,17.8
2023-05-09T23:10:41.387Z,17.8
2023-05-09T23:16:32.529Z,17.8
2023-05-09T23:22:09.260Z,17.8
2023-05-09T23:27:45.327Z,17.8
2023-05-09T23:33:21.952Z,17.8
2023-05-09T23:39:13.915Z,17.8
2023-05-09T23:44:49.856Z,17.8
2023-05-09T23:50:41.591Z,17.7
2023-05-09T23:56:33.529Z,17.7
